Time;durP1;ratioP1;P1;durP2;ratioP2;P2;SDS_P1;SDS_P2;PMS_P1;PMS_P2;Temp;Humidity;BMP_temperature;BMP_pressure;BME280_temperature;BME280_humidity;BME280_pressure;Samples;Min_cycle;Max_cycle;Signal;HPM_P1;HPM_P2
2024/03/09 00:00:32;0.00;0.00;0.62;0.00;0.00;0.62;6.17;5.03;;;22.80;20.70;;;;;;2264044;61;20368;-67
2024/03/09 00:03:18;0.00;0.00;0.62;0.00;0.00;0.62;5.23;4.43;;;22.80;20.70;;;;;;2264305;61;20368;-67
2024/03/09 00:06:03;0.00;0.00;0.62;0.00;0.00;0.62;4.87;4.13;;;22.80;20.70;;;;;;2263903;61;20388;-67
2024/03/09 00:08:49;0.00;0.00;0.62;0.00;0.00;0.62;5.23;4.73;;;22.80;20.70;;;;;;2261044;61;20367;-67
2024/03/09 00:11:33;0.00;0.00;0.62;0.00;0.00;0.62;5.90;5.30;;;22.80;20.70;;;;;;2263970;61;20391;-67
2024/03/09 00:14:18;0.00;0.00;0.62;0.00;0.00;0.62;4.13;3.73;;;22.70;20.70;;;;;;2263790;61;21222;-67
2024/03/09 00:17:03;0.00;0.00;0.62;0.00;0.00;0.62;4.53;4.10;;;22.70;20.70;;;;;;2264335;61;20363;-67
2024/03/09 00:19:49;0.00;0.00;0.62;0.00;0.00;0.62;5.10;4.50;;;22.70;20.70;;;;;;2263775;61;20414;-67
2024/03/09 00:22:34;0.00;0.00;0.62;0.00;0.00;0.62;6.20;5.17;;;22.70;20.70;;;;;;2264047;61;20361;-67
2024/03/09 00:25:22;0.00;0.00;0.62;0.00;0.00;0.62;5.20;4.63;;;22.70;20.70;;;;;;2264208;61;20383;-67
2024/03/09 00:28:07;0.00;0.00;0.62;0.00;0.00;0.62;6.20;4.60;;;22.70;20.70;;;;;;2263793;61;20535;-67
2024/03/09 00:30:51;0.00;0.00;0.62;0.00;0.00;0.62;5.47;4.97;;;22.70;20.70;;;;;;2263984;61;20368;-67
2024/03/09 00:33:38;0.00;0.00;0.62;0.00;0.00;0.62;6.20;4.83;;;22.70;20.70;;;;;;2263972;61;20364;-66
2024/03/09 00:36:23;0.00;0.00;0.62;0.00;0.00;0.62;5.00;4.20;;;22.70;20.70;;;;;;2263906;61;20360;-67
2024/03/09 00:39:10;0.00;0.00;0.62;0.00;0.00;0.62;4.80;4.30;;;22.70;20.70;;;;;;2264163;61;20380;-66
2024/03/09 00:41:54;0.00;0.00;0.62;0.00;0.00;0.62;5.20;4.63;;;22.70;20.70;;;;;;2263874;61;20793;-67
2024/03/09 00:44:39;0.00;0.00;0.62;0.00;0.00;0.62;5.30;4.27;;;22.70;20.70;;;;;;2263802;61;21148;-67
2024/03/09 00:47:24;0.00;0.00;0.62;0.00;0.00;0.62;4.60;4.13;;;22.70;20.70;;;;;;2264161;61;20430;-67
2024/03/09 00:50:09;0.00;0.00;0.62;0.00;0.00;0.62;5.57;4.97;;;22.70;20.70;;;;;;2263888;61;20407;-68
2024/03/09 00:52:55;0.00;0.00;0.62;0.00;0.00;0.62;5.90;4.80;;;22.70;20.70;;;;;;2263907;61;20800;-67
2024/03/09 00:55:41;0.00;0.00;0.62;0.00;0.00;0.62;5.30;4.60;;;22.70;20.70;;;;;;2263962;61;20396;-67
2024/03/09 00:58:27;0.00;0.00;0.62;0.00;0.00;0.62;5.10;4.43;;;22.70;20.70;;;;;;2263743;61;20408;-67
2024/03/09 01:01:12;0.00;0.00;0.62;0.00;0.00;0.62;5.37;4.87;;;22.70;20.70;;;;;;2264050;61;20364;-66
2024/03/09 01:03:57;0.00;0.00;0.62;0.00;0.00;0.62;5.30;4.40;;;22.70;20.70;;;;;;2263708;61;20419;-67
2024/03/09 01:06:42;0.00;0.00;0.62;0.00;0.00;0.62;5.00;4.50;;;22.70;20.70;;;;;;2263889;61;20368;-67
2024/03/09 01:09:28;0.00;0.00;0.62;0.00;0.00;0.62;8.03;5.40;;;22.70;20.70;;;;;;2263890;61;20384;-67
2024/03/09 01:12:13;0.00;0.00;0.62;0.00;0.00;0.62;5.27;4.77;;;22.70;20.70;;;;;;2263913;61;20392;-67
2024/03/09 01:14:58;0.00;0.00;0.62;0.00;0.00;0.62;6.10;5.50;;;22.70;20.70;;;;;;2264014;61;20391;-67
2024/03/09 01:17:42;0.00;0.00;0.62;0.00;0.00;0.62;5.00;4.50;;;22.60;20.60;;;;;;2263961;61;20900;-67
2024/03/09 01:20:27;0.00;0.00;0.62;0.00;0.00;0.62;5.60;4.63;;;22.70;20.70;;;;;;2263741;61;20360;-67
2024/03/09 01:23:11;0.00;0.00;0.62;0.00;0.00;0.62;5.47;4.97;;;22.60;20.60;;;;;;2263998;61;20364;-67
2024/03/09 01:25:57;0.00;0.00;0.62;0.00;0.00;0.62;6.47;5.10;;;22.60;20.60;;;;;;2263746;61;20407;-67
2024/03/09 01:28:42;0.00;0.00;0.62;0.00;0.00;0.62;6.97;5.50;;;22.60;20.60;;;;;;2263798;61;20877;-67
2024/03/09 01:31:31;0.00;0.00;0.62;0.00;0.00;0.62;6.50;5.20;;;22.60;20.60;;;;;;2263999;61;20364;-67
2024/03/09 01:34:16;0.00;0.00;0.62;0.00;0.00;0.62;5.60;5.10;;;22.60;20.60;;;;;;2260558;61;20890;-67
2024/03/09 01:37:01;0.00;0.00;0.62;0.00;0.00;0.62;5.50;5.00;;;22.60;20.60;;;;;;2263875;61;20359;-67
2024/03/09 01:39:46;0.00;0.00;0.62;0.00;0.00;0.62;5.10;4.60;;;22.60;20.60;;;;;;2263887;61;20449;-67
2024/03/09 01:42:33;0.00;0.00;0.62;0.00;0.00;0.62;5.07;4.57;;;22.60;20.60;;;;;;2263693;61;20784;-67
2024/03/09 01:45:17;0.00;0.00;0.62;0.00;0.00;0.62;5.17;4.67;;;22.50;20.50;;;;;;2263909;61;20392;-67
2024/03/09 01:48:03;0.00;0.00;0.62;0.00;0.00;0.62;6.93;5.30;;;22.50;20.50;;;;;;2263747;61;20890;-67
2024/03/09 01:50:49;0.00;0.00;0.62;0.00;0.00;0.62;5.23;4.73;;;22.50;20.50;;;;;;2263672;61;20364;-67
2024/03/09 01:53:35;0.00;0.00;0.62;0.00;0.00;0.62;5.27;4.77;;;22.50;20.50;;;;;;2263583;61;20439;-67
2024/03/09 01:56:22;0.00;0.00;0.62;0.00;0.00;0.62;5.37;4.87;;;22.50;20.50;;;;;;2263732;61;20778;-67
2024/03/09 01:59:08;0.00;0.00;0.62;0.00;0.00;0.62;6.13;5.40;;;22.50;20.50;;;;;;2263713;61;20812;-67
2024/03/09 02:01:54;0.00;0.00;0.62;0.00;0.00;0.62;5.77;5.17;;;22.50;20.50;;;;;;2263760;61;20459;-67
2024/03/09 02:04:41;0.00;0.00;0.62;0.00;0.00;0.62;5.70;5.20;;;22.50;20.50;;;;;;2263632;61;20387;-66
2024/03/09 02:07:26;0.00;0.00;0.62;0.00;0.00;0.62;5.20;4.70;;;22.50;20.50;;;;;;2264001;61;20450;-66
2024/03/09 02:10:11;0.00;0.00;0.62;0.00;0.00;0.62;5.57;4.93;;;22.40;20.40;;;;;;2263428;61;20511;-65
2024/03/09 02:12:57;0.00;0.00;0.62;0.00;0.00;0.62;7.30;5.83;;;22.40;20.40;;;;;;2260482;61;20405;-65
2024/03/09 02:15:47;0.00;0.00;0.62;0.00;0.00;0.62;4.90;4.40;;;22.40;20.40;;;;;;2257992;61;20392;-66
2024/03/09 02:18:33;0.00;0.00;0.62;0.00;0.00;0.62;6.37;5.40;;;22.40;20.40;;;;;;2264918;61;20951;-65
2024/03/09 02:21:18;0.00;0.00;0.62;0.00;0.00;0.62;5.17;4.67;;;22.40;20.40;;;;;;2263553;61;20810;-65
2024/03/09 02:24:11;0.00;0.00;0.62;0.00;0.00;0.62;5.73;5.00;;;22.40;20.40;;;;;;2263734;61;20429;-65
2024/03/09 02:26:59;0.00;0.00;0.62;0.00;0.00;0.62;8.23;5.57;;;22.40;20.40;;;;;;2263568;61;20456;-65
2024/03/09 02:29:45;0.00;0.00;0.62;0.00;0.00;0.62;5.30;4.50;;;22.40;20.40;;;;;;2263767;61;20909;-64
2024/03/09 02:32:30;0.00;0.00;0.62;0.00;0.00;0.62;5.10;4.60;;;22.30;20.40;;;;;;2260252;61;20376;-66
2024/03/09 02:35:15;0.00;0.00;0.62;0.00;0.00;0.62;6.43;5.57;;;22.30;20.40;;;;;;2263515;61;21056;-65
2024/03/09 02:38:00;0.00;0.00;0.62;0.00;0.00;0.62;5.90;5.30;;;22.30;20.40;;;;;;2263800;61;20379;-65
2024/03/09 02:40:45;0.00;0.00;0.62;0.00;0.00;0.62;6.13;5.53;;;22.30;20.40;;;;;;2263619;61;20771;-65
2024/03/09 02:43:36;0.00;0.00;0.62;0.00;0.00;0.62;5.87;5.27;;;22.30;20.40;;;;;;2263587;61;20881;-66
2024/03/09 02:46:21;0.00;0.00;0.62;0.00;0.00;0.62;5.60;4.90;;;22.30;20.40;;;;;;2263734;61;20925;-65
2024/03/09 02:49:06;0.00;0.00;0.62;0.00;0.00;0.62;5.77;5.20;;;22.30;20.40;;;;;;2263428;61;20363;-65
2024/03/09 02:51:51;0.00;0.00;0.62;0.00;0.00;0.62;5.30;4.80;;;22.30;20.40;;;;;;2263805;61;20383;-65
2024/03/09 02:54:36;0.00;0.00;0.62;0.00;0.00;0.62;6.23;5.33;;;22.30;20.40;;;;;;2263611;61;20789;-66
2024/03/09 02:57:21;0.00;0.00;0.62;0.00;0.00;0.62;7.83;6.03;;;22.20;20.30;;;;;;2263395;61;20434;-66
2024/03/09 03:00:09;0.00;0.00;0.62;0.00;0.00;0.62;7.53;6.07;;;22.20;20.30;;;;;;2263652;61;20364;-65
2024/03/09 03:05:57;0.00;0.00;0.62;0.00;0.00;0.62;6.80;5.53;;;22.20;20.40;;;;;;2263641;61;20375;-64
2024/03/09 03:08:42;0.00;0.00;0.62;0.00;0.00;0.62;6.20;5.43;;;22.20;20.40;;;;;;2263754;61;20368;-66
2024/03/09 03:11:28;0.00;0.00;0.62;0.00;0.00;0.62;6.23;5.63;;;22.20;20.40;;;;;;2263163;61;20451;-65
2024/03/09 03:14:12;0.00;0.00;0.62;0.00;0.00;0.62;6.30;5.60;;;22.20;20.50;;;;;;2262960;61;20451;-65
2024/03/09 03:16:58;0.00;0.00;0.62;0.00;0.00;0.62;6.00;5.33;;;22.20;20.50;;;;;;2263455;61;20905;-65
2024/03/09 03:19:43;0.00;0.00;0.62;0.00;0.00;0.62;6.20;5.50;;;22.20;20.50;;;;;;2263185;61;20367;-66
2024/03/09 03:22:29;0.00;0.00;0.62;0.00;0.00;0.62;6.23;5.17;;;22.20;20.40;;;;;;2263338;61;20467;-65
2024/03/09 03:25:14;0.00;0.00;0.62;0.00;0.00;0.62;6.83;6.10;;;22.20;20.50;;;;;;2263696;61;20391;-65
2024/03/09 03:27:59;0.00;0.00;0.62;0.00;0.00;0.62;6.13;5.53;;;22.20;20.50;;;;;;2263875;61;20371;-66
2024/03/09 03:30:44;0.00;0.00;0.62;0.00;0.00;0.62;6.33;5.60;;;22.20;20.50;;;;;;2264115;61;20804;-66
2024/03/09 03:33:32;0.00;0.00;0.62;0.00;0.00;0.62;6.70;5.50;;;22.20;20.50;;;;;;2263970;61;20429;-66
2024/03/09 03:36:19;0.00;0.00;0.62;0.00;0.00;0.62;6.03;5.27;;;22.20;20.50;;;;;;2264274;61;20388;-66
2024/03/09 03:39:04;0.00;0.00;0.62;0.00;0.00;0.62;7.67;5.67;;;22.10;20.40;;;;;;2264048;61;20364;-65
2024/03/09 03:41:52;0.00;0.00;0.62;0.00;0.00;0.62;6.10;5.50;;;22.10;20.50;;;;;;2264238;61;20360;-65
2024/03/09 03:44:38;0.00;0.00;0.62;0.00;0.00;0.62;5.57;4.97;;;22.10;20.50;;;;;;2264285;61;20426;-65
2024/03/09 03:47:23;0.00;0.00;0.62;0.00;0.00;0.62;7.17;6.47;;;22.10;20.50;;;;;;2264014;61;20430;-65
2024/03/09 03:50:09;0.00;0.00;0.62;0.00;0.00;0.62;5.33;4.83;;;22.10;20.50;;;;;;2264107;61;20819;-65
2024/03/09 03:52:54;0.00;0.00;0.62;0.00;0.00;0.62;5.50;4.83;;;22.10;20.50;;;;;;2264281;61;20391;-66
2024/03/09 03:55:40;0.00;0.00;0.62;0.00;0.00;0.62;6.13;5.53;;;22.10;20.50;;;;;;2263794;61;20438;-65
2024/03/09 03:58:25;0.00;0.00;0.62;0.00;0.00;0.62;7.23;5.70;;;22.10;20.50;;;;;;2264192;61;20494;-65
2024/03/09 04:01:10;0.00;0.00;0.62;0.00;0.00;0.62;6.00;5.40;;;22.10;20.50;;;;;;2264256;61;20363;-64
2024/03/09 04:03:55;0.00;0.00;0.62;0.00;0.00;0.62;6.30;5.57;;;22.10;20.50;;;;;;2264145;61;20356;-65
2024/03/09 04:06:44;0.00;0.00;0.62;0.00;0.00;0.62;5.50;4.97;;;22.10;20.50;;;;;;2264310;61;20374;-65
2024/03/09 04:09:28;0.00;0.00;0.62;0.00;0.00;0.62;6.03;5.43;;;22.10;20.50;;;;;;2265612;61;20406;-66
2024/03/09 04:12:13;0.00;0.00;0.62;0.00;0.00;0.62;6.53;5.93;;;22.10;20.50;;;;;;2264038;61;20917;-65
2024/03/09 04:14:58;0.00;0.00;0.62;0.00;0.00;0.62;7.50;5.93;;;22.10;20.60;;;;;;2264124;61;20418;-65
2024/03/09 04:17:43;0.00;0.00;0.62;0.00;0.00;0.62;6.40;5.37;;;22.10;20.50;;;;;;2263833;61;20382;-65
2024/03/09 04:20:32;0.00;0.00;0.62;0.00;0.00;0.62;6.37;5.77;;;22.10;20.50;;;;;;2264137;61;20778;-66
2024/03/09 04:23:18;0.00;0.00;0.62;0.00;0.00;0.62;8.20;5.90;;;22.10;20.50;;;;;;2264004;61;20364;-65
2024/03/09 04:26:03;0.00;0.00;0.62;0.00;0.00;0.62;6.10;5.60;;;22.10;20.50;;;;;;2263988;61;20433;-65
2024/03/09 04:28:47;0.00;0.00;0.62;0.00;0.00;0.62;5.93;5.30;;;22.10;20.50;;;;;;2264111;61;20433;-65
2024/03/09 04:31:32;0.00;0.00;0.62;0.00;0.00;0.62;6.33;4.80;;;22.10;20.50;;;;;;2264016;61;20896;-66
2024/03/09 04:34:23;0.00;0.00;0.62;0.00;0.00;0.62;6.27;5.47;;;22.10;20.50;;;;;;2263811;61;20387;-65
2024/03/09 04:37:08;0.00;0.00;0.62;0.00;0.00;0.62;6.17;5.37;;;22.10;20.50;;;;;;2264114;61;20893;-65
2024/03/09 04:39:58;0.00;0.00;0.62;0.00;0.00;0.62;5.70;5.13;;;22.10;20.50;;;;;;2263512;61;20406;-66
2024/03/09 04:42:46;0.00;0.00;0.62;0.00;0.00;0.62;7.10;6.20;;;22.00;20.50;;;;;;2264179;61;20898;-65
2024/03/09 04:45:34;0.00;0.00;0.62;0.00;0.00;0.62;5.93;5.33;;;22.00;20.50;;;;;;2263972;61;20419;-65
2024/03/09 04:48:19;0.00;0.00;0.62;0.00;0.00;0.62;5.67;5.17;;;22.00;20.50;;;;;;2260943;61;20379;-65
2024/03/09 04:51:04;0.00;0.00;0.62;0.00;0.00;0.62;5.87;5.27;;;22.10;20.60;;;;;;2264040;61;20422;-65
2024/03/09 04:53:51;0.00;0.00;0.62;0.00;0.00;0.62;6.30;5.70;;;22.10;20.60;;;;;;2263927;61;20534;-65
2024/03/09 04:56:38;0.00;0.00;0.62;0.00;0.00;0.62;5.90;5.30;;;22.10;20.60;;;;;;2263829;61;20414;-66
2024/03/09 04:59:22;0.00;0.00;0.62;0.00;0.00;0.62;6.50;5.77;;;22.10;20.50;;;;;;2264082;61;20410;-65
2024/03/09 05:02:07;0.00;0.00;0.62;0.00;0.00;0.62;7.10;5.70;;;22.00;20.50;;;;;;2263835;61;20379;-66
2024/03/09 05:04:51;0.00;0.00;0.62;0.00;0.00;0.62;6.20;5.60;;;22.00;20.50;;;;;;2260867;61;20924;-67
2024/03/09 05:07:36;0.00;0.00;0.62;0.00;0.00;0.62;6.20;5.67;;;22.10;20.50;;;;;;2263856;61;20905;-66
2024/03/09 05:10:23;0.00;0.00;0.62;0.00;0.00;0.62;6.00;5.40;;;22.10;20.50;;;;;;2263867;61;20356;-65
2024/03/09 05:13:09;0.00;0.00;0.62;0.00;0.00;0.62;6.27;5.67;;;22.10;20.50;;;;;;2264040;61;20403;-65
2024/03/09 05:15:54;0.00;0.00;0.62;0.00;0.00;0.62;5.80;5.20;;;22.00;20.50;;;;;;2263814;61;21027;-67
2024/03/09 05:18:39;0.00;0.00;0.62;0.00;0.00;0.62;6.47;5.80;;;22.10;20.50;;;;;;2263775;61;20406;-67
2024/03/09 05:21:24;0.00;0.00;0.62;0.00;0.00;0.62;6.10;5.40;;;22.00;20.50;;;;;;2264074;61;20889;-67
2024/03/09 05:24:09;0.00;0.00;0.62;0.00;0.00;0.62;6.17;5.57;;;22.00;20.50;;;;;;2263557;61;20448;-66
2024/03/09 05:26:54;0.00;0.00;0.62;0.00;0.00;0.62;6.50;5.60;;;22.10;20.50;;;;;;2263967;61;20367;-64
2024/03/09 05:29:39;0.00;0.00;0.62;0.00;0.00;0.62;6.67;5.50;;;22.00;20.40;;;;;;2263698;61;20399;-65
2024/03/09 05:32:27;0.00;0.00;0.62;0.00;0.00;0.62;5.80;5.20;;;22.00;20.40;;;;;;2263924;61;20395;-66
2024/03/09 05:35:13;0.00;0.00;0.62;0.00;0.00;0.62;5.93;5.33;;;22.10;20.50;;;;;;2263902;61;20817;-66
2024/03/09 05:37:59;0.00;0.00;0.62;0.00;0.00;0.62;6.20;5.40;;;22.10;20.50;;;;;;2263751;61;20383;-66
2024/03/09 05:40:43;0.00;0.00;0.62;0.00;0.00;0.62;7.33;6.10;;;22.00;20.40;;;;;;2263823;61;20363;-67
2024/03/09 05:43:28;0.00;0.00;0.62;0.00;0.00;0.62;6.73;6.00;;;22.10;20.50;;;;;;2263926;61;20360;-67
2024/03/09 05:46:17;0.00;0.00;0.62;0.00;0.00;0.62;7.30;5.57;;;22.00;20.40;;;;;;2263403;61;20445;-67
2024/03/09 05:49:05;0.00;0.00;0.62;0.00;0.00;0.62;6.33;5.37;;;22.00;20.40;;;;;;2263991;61;20834;-66
2024/03/09 05:51:49;0.00;0.00;0.62;0.00;0.00;0.62;6.00;5.40;;;22.10;20.50;;;;;;2263774;61;20349;-67
2024/03/09 05:54:35;0.00;0.00;0.62;0.00;0.00;0.62;6.90;6.10;;;22.10;20.50;;;;;;2263641;61;20489;-67
2024/03/09 05:57:22;0.00;0.00;0.62;0.00;0.00;0.62;8.43;6.30;;;22.00;20.40;;;;;;2263740;61;20356;-66
2024/03/09 06:00:09;0.00;0.00;0.62;0.00;0.00;0.62;6.50;5.87;;;22.00;20.90;;;;;;2260406;61;20379;-66
2024/03/09 06:03:03;0.00;0.00;0.62;0.00;0.00;0.62;5.90;5.30;;;22.00;20.30;;;;;;2263892;61;20989;-66
2024/03/09 06:05:48;0.00;0.00;0.62;0.00;0.00;0.62;5.63;5.13;;;22.00;20.40;;;;;;2263852;61;20376;-67
2024/03/09 06:08:34;0.00;0.00;0.62;0.00;0.00;0.62;6.70;5.83;;;22.00;20.40;;;;;;2263381;61;20360;-66
2024/03/09 06:11:19;0.00;0.00;0.62;0.00;0.00;0.62;7.00;6.30;;;22.10;20.40;;;;;;2263946;61;20429;-66
2024/03/09 06:14:04;0.00;0.00;0.62;0.00;0.00;0.62;7.50;6.67;;;22.00;20.40;;;;;;2263446;61;20384;-66
2024/03/09 06:16:48;0.00;0.00;0.62;0.00;0.00;0.62;6.23;5.60;;;22.10;20.40;;;;;;2263614;61;20454;-67
2024/03/09 06:19:34;0.00;0.00;0.62;0.00;0.00;0.62;6.77;6.13;;;22.00;20.30;;;;;;2263618;61;20868;-66
2024/03/09 06:22:19;0.00;0.00;0.62;0.00;0.00;0.62;7.80;6.20;;;22.00;20.30;;;;;;2263654;61;20877;-65
2024/03/09 06:25:05;0.00;0.00;0.62;0.00;0.00;0.62;6.70;6.00;;;22.00;20.30;;;;;;2263534;61;20380;-66
2024/03/09 06:27:50;0.00;0.00;0.62;0.00;0.00;0.62;6.40;5.70;;;22.10;20.40;;;;;;2260424;61;20418;-65
2024/03/09 06:30:37;0.00;0.00;0.62;0.00;0.00;0.62;7.70;7.00;;;22.00;20.30;;;;;;2263482;61;20889;-66
2024/03/09 06:33:22;0.00;0.00;0.62;0.00;0.00;0.62;6.83;6.13;;;22.00;20.30;;;;;;2263942;61;20438;-65
2024/03/09 06:36:12;0.00;0.00;0.62;0.00;0.00;0.62;6.97;6.17;;;22.00;20.30;;;;;;2263333;61;20891;-66
2024/03/09 06:38:56;0.00;0.00;0.62;0.00;0.00;0.62;8.37;6.77;;;22.00;20.30;;;;;;2263595;61;20479;-67
2024/03/09 06:41:47;0.00;0.00;0.62;0.00;0.00;0.62;7.10;6.40;;;22.00;20.30;;;;;;2263771;61;20360;-66
2024/03/09 06:44:32;0.00;0.00;0.62;0.00;0.00;0.62;7.67;6.50;;;22.00;20.30;;;;;;2263518;61;20391;-66
2024/03/09 06:47:17;0.00;0.00;0.62;0.00;0.00;0.62;7.50;6.50;;;22.00;20.30;;;;;;2263678;61;20909;-66
2024/03/09 06:50:04;0.00;0.00;0.62;0.00;0.00;0.62;7.60;6.80;;;22.00;20.30;;;;;;2263684;61;20360;-66
2024/03/09 06:52:51;0.00;0.00;0.62;0.00;0.00;0.62;7.27;6.10;;;22.00;20.30;;;;;;2263256;61;20808;-65
2024/03/09 06:55:36;0.00;0.00;0.62;0.00;0.00;0.62;8.17;6.93;;;22.00;20.30;;;;;;2263702;61;21007;-66
2024/03/09 06:58:21;0.00;0.00;0.62;0.00;0.00;0.62;8.20;6.97;;;22.00;20.30;;;;;;2263514;61;20410;-66
2024/03/09 07:01:06;0.00;0.00;0.62;0.00;0.00;0.62;6.43;5.73;;;22.00;20.30;;;;;;2263494;61;20454;-66
2024/03/09 07:03:50;0.00;0.00;0.62;0.00;0.00;0.62;8.03;7.23;;;22.00;20.30;;;;;;2263529;61;20403;-66
2024/03/09 07:06:35;0.00;0.00;0.62;0.00;0.00;0.62;8.00;7.10;;;22.00;20.30;;;;;;2263578;61;20781;-66
2024/03/09 07:09:22;0.00;0.00;0.62;0.00;0.00;0.62;8.27;7.47;;;22.00;20.30;;;;;;2263455;61;20360;-66
2024/03/09 07:12:07;0.00;0.00;0.62;0.00;0.00;0.62;7.93;7.13;;;22.00;20.30;;;;;;2263632;61;21021;-67
2024/03/09 07:14:51;0.00;0.00;0.62;0.00;0.00;0.62;9.20;7.97;;;22.00;20.40;;;;;;2263490;61;20808;-66
2024/03/09 07:17:36;0.00;0.00;0.62;0.00;0.00;0.62;8.43;7.60;;;22.00;20.30;;;;;;2263555;61;20935;-66
2024/03/09 07:20:26;0.00;0.00;0.62;0.00;0.00;0.62;9.73;8.23;;;22.00;20.40;;;;;;2263584;61;20411;-67
2024/03/09 07:23:10;0.00;0.00;0.62;0.00;0.00;0.62;8.60;7.70;;;22.00;20.40;;;;;;2263387;61;20356;-67
2024/03/09 07:25:56;0.00;0.00;0.62;0.00;0.00;0.62;9.33;7.70;;;22.00;20.40;;;;;;2263607;61;20380;-66
2024/03/09 07:28:41;0.00;0.00;0.62;0.00;0.00;0.62;8.30;7.50;;;22.00;20.40;;;;;;2263380;61;20522;-67
2024/03/09 07:31:27;0.00;0.00;0.62;0.00;0.00;0.62;9.00;8.07;;;22.00;20.90;;;;;;2263372;61;20364;-66
2024/03/09 07:34:12;0.00;0.00;0.62;0.00;0.00;0.62;10.00;7.80;;;22.00;20.40;;;;;;2263242;61;20387;-66
2024/03/09 07:36:56;0.00;0.00;0.62;0.00;0.00;0.62;9.00;8.03;;;22.00;20.40;;;;;;2263045;61;20454;-66
2024/03/09 07:39:41;0.00;0.00;0.62;0.00;0.00;0.62;8.87;7.97;;;22.00;20.40;;;;;;2263601;61;20414;-67
2024/03/09 07:42:27;0.00;0.00;0.62;0.00;0.00;0.62;9.53;8.63;;;22.00;20.40;;;;;;2263629;61;20827;-66
2024/03/09 07:45:13;0.00;0.00;0.62;0.00;0.00;0.62;8.90;7.87;;;22.00;20.40;;;;;;2263299;61;20383;-66
2024/03/09 07:47:58;0.00;0.00;0.62;0.00;0.00;0.62;9.33;8.33;;;22.00;20.40;;;;;;2263554;61;20363;-67
2024/03/09 07:50:48;0.00;0.00;0.62;0.00;0.00;0.62;10.10;8.00;;;22.00;20.40;;;;;;2263319;61;20561;-66
2024/03/09 07:53:33;0.00;0.00;0.62;0.00;0.00;0.62;8.93;8.07;;;22.00;20.40;;;;;;2263311;61;20384;-66
2024/03/09 07:56:18;0.00;0.00;0.62;0.00;0.00;0.62;9.60;8.30;;;22.00;20.40;;;;;;2263220;61;20383;-66
2024/03/09 07:59:07;0.00;0.00;0.62;0.00;0.00;0.62;8.60;7.63;;;22.00;20.40;;;;;;2263081;61;20355;-66
2024/03/09 08:01:51;0.00;0.00;0.62;0.00;0.00;0.62;8.60;7.70;;;22.00;20.40;;;;;;2263501;61;20364;-66
2024/03/09 08:04:36;0.00;0.00;0.62;0.00;0.00;0.62;8.40;7.50;;;22.00;20.40;;;;;;2263473;61;20476;-66
2024/03/09 08:07:22;0.00;0.00;0.62;0.00;0.00;0.62;8.73;7.90;;;22.00;20.40;;;;;;2263468;61;20387;-66
2024/03/09 08:10:07;0.00;0.00;0.62;0.00;0.00;0.62;8.43;7.60;;;22.00;20.40;;;;;;2263401;61;20430;-66
2024/03/09 08:12:53;0.00;0.00;0.62;0.00;0.00;0.62;8.33;7.50;;;22.00;20.40;;;;;;2263374;61;20379;-67
2024/03/09 08:15:39;0.00;0.00;0.62;0.00;0.00;0.62;8.00;7.20;;;22.00;20.40;;;;;;2263916;61;20534;-66
2024/03/09 08:18:24;0.00;0.00;0.62;0.00;0.00;0.62;8.10;7.30;;;21.90;20.30;;;;;;2264125;61;20368;-66
2024/03/09 08:21:09;0.00;0.00;0.62;0.00;0.00;0.62;8.80;7.90;;;22.00;20.40;;;;;;2263973;61;20406;-66
2024/03/09 08:23:54;0.00;0.00;0.62;0.00;0.00;0.62;9.30;8.40;;;22.00;20.40;;;;;;2263977;61;20356;-66
2024/03/09 08:26:38;0.00;0.00;0.62;0.00;0.00;0.62;10.00;8.40;;;22.00;20.40;;;;;;2264061;61;20364;-66
2024/03/09 08:29:23;0.00;0.00;0.62;0.00;0.00;0.62;8.80;7.90;;;22.00;20.40;;;;;;2263941;61;20446;-67
2024/03/09 08:32:09;0.00;0.00;0.62;0.00;0.00;0.62;9.43;8.43;;;22.00;20.40;;;;;;2263969;61;20364;-66
2024/03/09 08:34:54;0.00;0.00;0.62;0.00;0.00;0.62;8.87;7.97;;;21.90;21.00;;;;;;2263836;61;20384;-66
2024/03/09 08:37:41;0.00;0.00;0.62;0.00;0.00;0.62;9.63;8.63;;;21.90;20.40;;;;;;2260653;61;20775;-67
2024/03/09 08:40:25;0.00;0.00;0.62;0.00;0.00;0.62;8.50;7.70;;;22.00;20.50;;;;;;2264209;61;20364;-66
2024/03/09 08:43:11;0.00;0.00;0.62;0.00;0.00;0.62;9.80;8.80;;;22.00;20.50;;;;;;2263738;61;20788;-66
2024/03/09 08:45:56;0.00;0.00;0.62;0.00;0.00;0.62;10.10;8.10;;;21.90;20.50;;;;;;2264004;61;20416;-66
2024/03/09 08:48:43;0.00;0.00;0.62;0.00;0.00;0.62;10.00;8.87;;;22.00;20.60;;;;;;2264023;61;20367;-67
2024/03/09 08:51:28;0.00;0.00;0.62;0.00;0.00;0.62;11.77;9.93;;;22.00;20.60;;;;;;2260569;61;20376;-66
2024/03/09 08:54:13;0.00;0.00;0.62;0.00;0.00;0.62;10.90;8.97;;;22.00;20.60;;;;;;2263848;61;20387;-66
2024/03/09 08:56:58;0.00;0.00;0.62;0.00;0.00;0.62;11.40;9.80;;;22.00;20.60;;;;;;2263848;61;20763;-67
2024/03/09 08:59:43;0.00;0.00;0.62;0.00;0.00;0.62;10.73;9.63;;;22.00;20.60;;;;;;2263673;61;20364;-67
2024/03/09 09:02:28;0.00;0.00;0.62;0.00;0.00;0.62;11.50;9.83;;;22.00;20.60;;;;;;2264315;61;20395;-65
2024/03/09 09:05:14;0.00;0.00;0.62;0.00;0.00;0.62;9.77;8.80;;;22.00;20.60;;;;;;2264168;61;20616;-65
2024/03/09 09:07:59;0.00;0.00;0.62;0.00;0.00;0.62;11.20;10.10;;;22.00;20.60;;;;;;2263910;61;20368;-66
2024/03/09 09:10:43;0.00;0.00;0.62;0.00;0.00;0.62;11.63;10.30;;;22.00;20.60;;;;;;2263572;61;20368;-66
2024/03/09 09:13:28;0.00;0.00;0.62;0.00;0.00;0.62;12.43;11.13;;;22.00;20.60;;;;;;2263688;61;20478;-67
2024/03/09 09:16:14;0.00;0.00;0.62;0.00;0.00;0.62;10.43;9.37;;;22.00;20.60;;;;;;2263778;61;20429;-67
2024/03/09 09:18:59;0.00;0.00;0.62;0.00;0.00;0.62;12.30;10.03;;;22.00;20.70;;;;;;2260554;61;20622;-66
2024/03/09 09:21:45;0.00;0.00;0.62;0.00;0.00;0.62;9.97;8.97;;;22.00;20.60;;;;;;2263821;61;20837;-66
2024/03/09 09:24:29;0.00;0.00;0.62;0.00;0.00;0.62;12.20;10.63;;;22.00;20.60;;;;;;2263911;61;20387;-66
2024/03/09 09:27:14;0.00;0.00;0.62;0.00;0.00;0.62;10.40;9.10;;;22.10;20.70;;;;;;2263738;61;21001;-66
2024/03/09 09:29:59;0.00;0.00;0.62;0.00;0.00;0.62;11.03;9.90;;;22.00;20.60;;;;;;2260442;61;20467;-67
2024/03/09 09:32:43;0.00;0.00;0.62;0.00;0.00;0.62;12.23;10.90;;;22.10;20.70;;;;;;2263778;61;20395;-67
2024/03/09 09:35:28;0.00;0.00;0.62;0.00;0.00;0.62;10.50;9.40;;;22.10;20.70;;;;;;2263781;61;20789;-67
2024/03/09 09:38:17;0.00;0.00;0.62;0.00;0.00;0.62;11.20;9.60;;;22.10;20.70;;;;;;2263709;61;20368;-67
2024/03/09 09:41:04;0.00;0.00;0.62;0.00;0.00;0.62;10.83;9.33;;;22.10;20.70;;;;;;2263848;61;20435;-66
2024/03/09 09:43:53;0.00;0.00;0.62;0.00;0.00;0.62;11.10;9.93;;;22.10;20.70;;;;;;2263693;61;20763;-66
2024/03/09 09:46:38;0.00;0.00;0.62;0.00;0.00;0.62;10.67;9.40;;;22.10;20.70;;;;;;2263951;61;20368;-66
2024/03/09 09:49:24;0.00;0.00;0.62;0.00;0.00;0.62;11.83;9.50;;;22.10;20.70;;;;;;2263607;61;20764;-67
2024/03/09 09:52:10;0.00;0.00;0.62;0.00;0.00;0.62;12.10;9.40;;;22.20;20.70;;;;;;2260434;61;20399;-67
2024/03/09 09:54:58;0.00;0.00;0.62;0.00;0.00;0.62;11.07;9.30;;;22.20;20.70;;;;;;2263901;61;20446;-67
2024/03/09 09:57:46;0.00;0.00;0.62;0.00;0.00;0.62;9.97;8.40;;;22.20;20.70;;;;;;2263721;61;20403;-67
2024/03/09 10:00:31;0.00;0.00;0.62;0.00;0.00;0.62;8.97;8.07;;;22.20;20.70;;;;;;2263728;61;20384;-65
2024/03/09 10:03:16;0.00;0.00;0.62;0.00;0.00;0.62;11.17;8.77;;;22.20;20.70;;;;;;2263796;61;20578;-66
2024/03/09 10:06:00;0.00;0.00;0.62;0.00;0.00;0.62;10.93;9.07;;;22.20;20.70;;;;;;2260502;61;20380;-65
2024/03/09 10:08:48;0.00;0.00;0.62;0.00;0.00;0.62;9.40;8.30;;;22.20;20.70;;;;;;2260441;61;20460;-65
2024/03/09 10:11:34;0.00;0.00;0.62;0.00;0.00;0.62;10.03;8.57;;;22.20;20.70;;;;;;2263938;61;20418;-66
2024/03/09 10:14:27;0.00;0.00;0.62;0.00;0.00;0.62;10.27;8.80;;;22.20;20.70;;;;;;2263681;61;20439;-66
2024/03/09 10:17:14;0.00;0.00;0.62;0.00;0.00;0.62;10.37;9.37;;;22.20;20.70;;;;;;2263885;61;20846;-65
2024/03/09 10:20:00;0.00;0.00;0.62;0.00;0.00;0.62;10.67;9.57;;;22.30;20.80;;;;;;2263562;61;20368;-66
2024/03/09 10:22:47;0.00;0.00;0.62;0.00;0.00;0.62;10.37;9.30;;;22.30;20.70;;;;;;2263675;61;20360;-66
2024/03/09 10:25:35;0.00;0.00;0.62;0.00;0.00;0.62;9.93;8.93;;;22.30;20.80;;;;;;2260496;61;20472;-66
2024/03/09 10:28:21;0.00;0.00;0.62;0.00;0.00;0.62;9.40;8.40;;;22.30;20.80;;;;;;2263488;61;20448;-66
2024/03/09 10:31:09;0.00;0.00;0.62;0.00;0.00;0.62;9.93;8.37;;;22.30;20.80;;;;;;2263774;61;20380;-66
2024/03/09 10:33:55;0.00;0.00;0.62;0.00;0.00;0.62;10.13;9.07;;;22.30;20.80;;;;;;2263400;61;20991;-66
2024/03/09 10:36:39;0.00;0.00;0.62;0.00;0.00;0.62;9.47;8.47;;;22.40;20.80;;;;;;2263338;61;20356;-66
2024/03/09 10:39:24;0.00;0.00;0.62;0.00;0.00;0.62;9.60;8.57;;;22.40;20.80;;;;;;2263725;61;20360;-66
2024/03/09 10:42:15;0.00;0.00;0.62;0.00;0.00;0.62;10.00;8.97;;;22.40;20.80;;;;;;2263459;61;20360;-66
2024/03/09 10:45:03;0.00;0.00;0.62;0.00;0.00;0.62;9.77;8.37;;;22.40;20.80;;;;;;2263830;61;20492;-66
2024/03/09 10:47:49;0.00;0.00;0.62;0.00;0.00;0.62;9.70;7.80;;;22.40;20.80;;;;;;2263600;61;20364;-66
2024/03/09 10:50:40;0.00;0.00;0.62;0.00;0.00;0.62;9.20;7.47;;;22.40;20.80;;;;;;2263500;61;20418;-66
2024/03/09 10:53:38;0.00;0.00;0.62;0.00;0.00;0.62;9.83;8.20;;;22.50;20.90;;;;;;2263637;61;20388;-66
2024/03/09 10:56:24;0.00;0.00;0.62;0.00;0.00;0.62;9.60;8.60;;;22.50;20.90;;;;;;2263370;61;20383;-66